Time;durP1;ratioP1;P1;durP2;ratioP2;P2;SDS_P1;SDS_P2;PMS_P1;PMS_P2;Temp;Humidity;BMP_temperature;BMP_pressure;BME280_temperature;BME280_humidity;BME280_pressure;Samples;Min_cycle;Max_cycle;Signal;HPM_P1;HPM_P2
2023/12/29 00:01:56;;;;;;;13.05;2.95;;;10.40;99.90;;;;;;4963435;28;20054;-74
2023/12/29 00:04:22;;;;;;;11.75;2.40;;;10.40;99.90;;;;;;4961409;28;20043;-75
2023/12/29 00:06:48;;;;;;;11.73;2.50;;;10.40;99.90;;;;;;4960989;28;20490;-74
2023/12/29 00:09:14;;;;;;;11.73;2.42;;;10.40;99.90;;;;;;4966867;28;20450;-74
2023/12/29 00:11:40;;;;;;;12.80;3.08;;;10.40;99.90;;;;;;4952301;28;20046;-74
2023/12/29 00:14:06;;;;;;;10.25;2.28;;;10.40;99.90;;;;;;4954752;28;20047;-74
2023/12/29 00:16:31;;;;;;;13.27;2.75;;;10.40;99.90;;;;;;4956364;28;20039;-75
2023/12/29 00:18:57;;;;;;;11.43;2.72;;;10.30;99.90;;;;;;4955403;28;20093;-77
2023/12/29 00:21:22;;;;;;;13.50;2.60;;;10.30;99.90;;;;;;4952467;28;20047;-75
2023/12/29 00:23:48;;;;;;;12.90;2.42;;;10.20;99.90;;;;;;4938880;28;20125;-75
2023/12/29 00:26:17;;;;;;;13.20;2.72;;;10.10;99.90;;;;;;4951182;28;20082;-75
2023/12/29 00:28:44;;;;;;;12.65;2.30;;;10.00;99.90;;;;;;4956985;28;20096;-75
2023/12/29 00:31:15;;;;;;;10.32;2.20;;;10.00;99.90;;;;;;4954283;28;20058;-77
2023/12/29 00:33:41;;;;;;;13.02;2.65;;;10.00;99.90;;;;;;4955084;28;20043;-75
2023/12/29 00:36:07;;;;;;;13.75;2.63;;;10.00;99.90;;;;;;4954552;28;20050;-75
2023/12/29 00:38:33;;;;;;;11.35;2.80;;;10.00;99.90;;;;;;4956575;28;20417;-78
2023/12/29 00:40:58;;;;;;;13.50;2.78;;;10.00;99.90;;;;;;4963745;28;20043;-76
2023/12/29 00:43:24;;;;;;;14.85;2.97;;;9.90;99.90;;;;;;4956479;28;20051;-76
2023/12/29 00:45:49;;;;;;;18.77;3.58;;;9.90;99.90;;;;;;4955981;28;20047;-78
2023/12/29 00:48:15;;;;;;;14.20;2.70;;;9.90;99.90;;;;;;4954592;28;20042;-75
2023/12/29 00:50:40;;;;;;;16.35;3.65;;;9.90;99.90;;;;;;4973364;28;20057;-75
2023/12/29 00:53:06;;;;;;;18.27;3.65;;;9.90;99.90;;;;;;4965550;28;20094;-75
2023/12/29 00:55:32;;;;;;;17.25;3.83;;;9.90;99.90;;;;;;4954419;28;20054;-77
2023/12/29 00:57:57;;;;;;;14.85;3.17;;;9.90;99.90;;;;;;4957170;28;20045;-75
2023/12/29 01:00:23;;;;;;;12.40;3.15;;;9.90;99.90;;;;;;4955499;28;20098;-75
2023/12/29 01:02:48;;;;;;;16.52;4.07;;;9.90;99.90;;;;;;4959198;28;20070;-75
2023/12/29 01:05:17;;;;;;;15.40;2.90;;;9.90;99.90;;;;;;4956697;28;20107;-78
2023/12/29 01:07:43;;;;;;;16.83;3.55;;;9.80;99.90;;;;;;4958172;28;20085;-74
2023/12/29 01:10:09;;;;;;;17.80;4.10;;;9.80;99.90;;;;;;4979654;28;20074;-75
2023/12/29 01:12:34;;;;;;;14.50;3.03;;;9.80;99.90;;;;;;4955664;28;20052;-76
2023/12/29 01:15:00;;;;;;;15.02;3.33;;;9.90;99.90;;;;;;4962401;28;20042;-75
2023/12/29 01:17:27;;;;;;;13.93;3.55;;;9.90;99.90;;;;;;4954727;28;20039;-74
2023/12/29 01:19:54;;;;;;;16.48;3.28;;;9.90;99.90;;;;;;4970354;28;20046;-74
2023/12/29 01:22:19;;;;;;;13.60;3.15;;;9.90;99.90;;;;;;4959785;28;20402;-75
2023/12/29 01:24:45;;;;;;;14.18;2.95;;;9.90;99.90;;;;;;4954361;28;20058;-77
2023/12/29 01:27:10;;;;;;;11.43;2.90;;;9.90;99.90;;;;;;4961677;28;20141;-75
2023/12/29 01:29:36;;;;;;;15.85;3.25;;;10.10;99.90;;;;;;4953056;28;20047;-75
2023/12/29 01:32:03;;;;;;;11.65;3.03;;;10.10;99.90;;;;;;4969009;28;20474;-75
2023/12/29 01:34:32;;;;;;;15.43;3.45;;;10.10;99.90;;;;;;4971578;28;20050;-75
2023/12/29 01:36:58;;;;;;;17.88;3.08;;;10.10;99.90;;;;;;4962279;28;20619;-75
2023/12/29 01:39:24;;;;;;;11.60;2.67;;;10.10;99.90;;;;;;4960747;28;20054;-74
2023/12/29 01:41:50;;;;;;;13.65;2.75;;;10.10;99.90;;;;;;4970858;28;20043;-74
2023/12/29 01:44:22;;;;;;;12.02;2.78;;;10.10;99.90;;;;;;4961108;28;20133;-77
2023/12/29 01:46:53;;;;;;;10.50;2.88;;;10.10;99.90;;;;;;4952046;28;20129;-75
2023/12/29 01:49:20;;;;;;;15.32;2.95;;;10.10;99.90;;;;;;4960284;28;20498;-75
2023/12/29 01:51:57;;;;;;;13.32;2.70;;;10.10;99.90;;;;;;4957585;28;20507;-78
2023/12/29 01:54:27;;;;;;;11.85;3.17;;;10.00;99.90;;;;;;4940582;28;20042;-75
2023/12/29 01:56:57;;;;;;;11.45;2.72;;;10.10;99.90;;;;;;4958903;28;20043;-76
2023/12/29 01:59:25;;;;;;;18.02;3.25;;;10.00;99.90;;;;;;4964712;28;20038;-75
2023/12/29 02:01:51;;;;;;;18.25;3.05;;;10.00;99.90;;;;;;4941511;28;20487;-75
2023/12/29 02:04:18;;;;;;;16.17;3.17;;;10.10;99.90;;;;;;4962094;28;20050;-74
2023/12/29 02:06:43;;;;;;;17.50;3.08;;;10.10;99.90;;;;;;4957943;28;20053;-74
2023/12/29 02:09:09;;;;;;;19.08;2.80;;;10.10;99.90;;;;;;4959411;28;20050;-75
2023/12/29 02:11:35;;;;;;;11.90;2.92;;;10.20;99.90;;;;;;4945563;28;20118;-77
2023/12/29 02:14:02;;;;;;;14.02;2.95;;;10.20;99.90;;;;;;4986240;28;20045;-75
2023/12/29 02:16:40;;;;;;;15.77;3.15;;;10.20;99.90;;;;;;4969549;28;20126;-75
2023/12/29 02:19:30;;;;;;;12.05;2.97;;;10.20;99.90;;;;;;4959023;28;20043;-76
2023/12/29 02:21:56;;;;;;;13.23;2.90;;;10.20;99.90;;;;;;4959976;28;20058;-79
2023/12/29 02:24:21;;;;;;;9.80;2.50;;;10.20;99.90;;;;;;4970517;28;20530;-76
2023/12/29 02:26:53;;;;;;;14.10;3.08;;;10.40;99.90;;;;;;4960749;28;20069;-75
2023/12/29 02:29:20;;;;;;;12.63;3.65;;;10.20;99.90;;;;;;4957724;28;20116;-78
2023/12/29 02:31:51;;;;;;;10.55;2.50;;;10.30;99.90;;;;;;4958467;28;20043;-75
2023/12/29 02:34:19;;;;;;;16.40;3.00;;;10.30;99.90;;;;;;4964119;28;20049;-77
2023/12/29 02:36:46;;;;;;;10.10;2.33;;;10.30;99.90;;;;;;4955047;28;20043;-78
2023/12/29 02:39:12;;;;;;;13.07;3.05;;;10.30;99.90;;;;;;4964137;28;20054;-75
2023/12/29 02:41:39;;;;;;;10.93;2.78;;;10.30;99.90;;;;;;4952823;28;20051;-76
2023/12/29 02:44:04;;;;;;;17.17;2.92;;;10.30;99.90;;;;;;4971340;28;20518;-76
2023/12/29 02:46:30;;;;;;;14.50;2.72;;;10.30;99.90;;;;;;4958602;28;20090;-75
2023/12/29 02:48:56;;;;;;;14.80;2.72;;;10.30;99.90;;;;;;4976126;28;20066;-75
2023/12/29 02:51:21;;;;;;;9.98;2.47;;;10.30;99.90;;;;;;4977213;28;20405;-77
2023/12/29 02:53:48;;;;;;;17.23;3.20;;;10.40;99.90;;;;;;4950646;28;20035;-75
2023/12/29 02:56:14;;;;;;;17.98;3.38;;;10.40;99.90;;;;;;4973377;28;20039;-77
2023/12/29 02:58:40;;;;;;;11.20;3.15;;;10.40;99.90;;;;;;4959890;28;20039;-78
2023/12/29 03:01:05;;;;;;;10.57;3.00;;;10.40;99.90;;;;;;4954173;28;20566;-80
2023/12/29 03:03:31;;;;;;;14.20;3.05;;;10.30;99.90;;;;;;4963821;28;20418;-75
2023/12/29 03:05:56;;;;;;;18.33;4.05;;;10.30;99.90;;;;;;4952819;28;20047;-75
2023/12/29 03:08:22;;;;;;;11.82;3.63;;;10.30;99.90;;;;;;4955181;28;20786;-75
2023/12/29 03:10:47;;;;;;;13.70;3.20;;;10.30;99.90;;;;;;4957192;28;20046;-78
2023/12/29 03:13:13;;;;;;;17.05;3.55;;;10.20;99.90;;;;;;4965655;28;20043;-75
2023/12/29 03:15:38;;;;;;;13.15;2.75;;;10.20;99.90;;;;;;4950985;28;20055;-75
2023/12/29 03:18:04;;;;;;;13.75;2.63;;;10.20;99.90;;;;;;4949548;28;20134;-75
2023/12/29 03:20:30;;;;;;;11.07;2.92;;;10.10;99.90;;;;;;4956548;28;20046;-80
2023/12/29 03:22:55;;;;;;;13.52;3.05;;;10.00;99.90;;;;;;4954337;28;20105;-75
2023/12/29 03:25:21;;;;;;;12.85;3.58;;;10.00;99.90;;;;;;4954867;28;20078;-75
2023/12/29 03:27:47;;;;;;;10.77;3.03;;;10.00;99.90;;;;;;4949495;28;20543;-75
2023/12/29 03:30:12;;;;;;;18.52;3.13;;;10.00;99.90;;;;;;4954293;28;20046;-76
2023/12/29 03:32:38;;;;;;;9.85;2.70;;;10.00;99.90;;;;;;4963792;28;20034;-78
2023/12/29 03:35:04;;;;;;;13.23;2.70;;;10.00;99.90;;;;;;4984918;28;20089;-75
2023/12/29 03:37:30;;;;;;;11.63;2.65;;;10.00;99.90;;;;;;4978849;28;20425;-75
2023/12/29 03:39:55;;;;;;;11.48;3.15;;;10.00;99.90;;;;;;4958550;28;20050;-75
2023/12/29 03:42:21;;;;;;;15.50;2.95;;;9.90;99.90;;;;;;4955563;28;20081;-75
2023/12/29 03:44:46;;;;;;;18.90;3.80;;;9.90;99.90;;;;;;4964949;28;20067;-78
2023/12/29 03:47:12;;;;;;;17.92;3.50;;;9.90;99.90;;;;;;4954256;28;20059;-77
2023/12/29 03:49:37;;;;;;;15.98;3.20;;;9.90;99.90;;;;;;4965932;28;20039;-75
2023/12/29 03:52:03;;;;;;;16.17;3.67;;;9.90;99.90;;;;;;4958171;28;20145;-78
2023/12/29 03:54:29;;;;;;;15.02;3.70;;;9.90;99.90;;;;;;4959977;28;20517;-78
2023/12/29 03:56:54;;;;;;;12.07;3.00;;;9.90;99.90;;;;;;4963044;28;20047;-74
2023/12/29 03:59:20;;;;;;;15.82;3.42;;;10.00;99.90;;;;;;4949539;28;20054;-75
2023/12/29 04:01:45;;;;;;;17.42;3.60;;;10.80;99.90;;;;;;4952358;28;20083;-75
2023/12/29 04:04:11;;;;;;;13.45;3.63;;;10.70;99.90;;;;;;4962423;28;20047;-81
2023/12/29 04:06:36;;;;;;;18.67;3.33;;;10.10;99.90;;;;;;4951913;28;20047;-77
2023/12/29 04:09:03;;;;;;;17.90;3.83;;;10.00;99.90;;;;;;4954372;28;20058;-75
2023/12/29 04:11:28;;;;;;;19.92;4.13;;;10.00;99.90;;;;;;4970182;28;20451;-75
2023/12/29 04:13:54;;;;;;;20.83;3.75;;;9.90;99.90;;;;;;4962982;28;20031;-75
2023/12/29 04:16:19;;;;;;;19.23;4.13;;;9.80;99.90;;;;;;4964725;28;20039;-76
2023/12/29 04:18:45;;;;;;;20.88;3.72;;;9.70;99.90;;;;;;4957491;28;20031;-75
2023/12/29 04:21:15;;;;;;;16.95;4.05;;;9.70;99.90;;;;;;4958639;28;20043;-80
2023/12/29 04:23:41;;;;;;;19.17;3.65;;;9.70;99.90;;;;;;4957850;28;20042;-75
2023/12/29 04:26:07;;;;;;;16.52;3.40;;;9.70;99.90;;;;;;4958600;28;20561;-75
2023/12/29 04:28:33;;;;;;;16.05;3.08;;;9.70;99.90;;;;;;4969250;28;20043;-77
2023/12/29 04:30:58;;;;;;;11.50;2.80;;;9.70;99.90;;;;;;4956877;28;20613;-76
2023/12/29 04:33:24;;;;;;;19.90;3.30;;;9.70;99.90;;;;;;4959754;28;20047;-78
2023/12/29 04:35:49;;;;;;;15.38;3.40;;;9.70;99.90;;;;;;4957495;28;20058;-76
2023/12/29 04:38:18;;;;;;;15.27;2.88;;;9.60;99.90;;;;;;4971336;28;20038;-75
2023/12/29 04:40:43;;;;;;;20.25;3.47;;;9.60;99.90;;;;;;4954439;28;20105;-75
2023/12/29 04:43:09;;;;;;;20.50;3.95;;;9.70;99.90;;;;;;4962966;28;20066;-75
2023/12/29 04:45:34;;;;;;;18.48;3.33;;;9.60;99.90;;;;;;4965026;28;20050;-75
2023/12/29 04:48:00;;;;;;;15.38;2.80;;;9.60;99.90;;;;;;4987438;28;20069;-80
2023/12/29 04:50:26;;;;;;;19.02;2.90;;;9.90;99.90;;;;;;4954788;28;20113;-75
2023/12/29 04:52:51;;;;;;;17.13;3.15;;;9.60;99.90;;;;;;4957784;28;20517;-75
2023/12/29 04:55:17;;;;;;;20.33;4.18;;;9.60;99.90;;;;;;4946335;28;20078;-76
2023/12/29 04:57:42;;;;;;;26.58;4.15;;;9.60;99.90;;;;;;4956085;28;20050;-78
2023/12/29 05:00:08;;;;;;;21.13;3.45;;;9.60;99.90;;;;;;4969600;28;20030;-75
2023/12/29 05:02:34;;;;;;;16.90;3.63;;;9.60;99.90;;;;;;4938332;28;20041;-75
2023/12/29 05:05:00;;;;;;;24.45;3.85;;;9.50;99.90;;;;;;4954549;28;20038;-77
2023/12/29 05:07:26;;;;;;;20.20;4.53;;;9.50;99.90;;;;;;4958437;28;20054;-76
2023/12/29 05:09:52;;;;;;;19.73;4.78;;;9.50;99.90;;;;;;4967791;28;20394;-75
2023/12/29 05:12:18;;;;;;;26.88;4.18;;;9.50;99.90;;;;;;4981237;28;20142;-75
2023/12/29 05:14:44;;;;;;;18.42;3.72;;;9.50;99.90;;;;;;4966693;28;20094;-74
2023/12/29 05:17:09;;;;;;;27.05;5.50;;;9.50;99.90;;;;;;4958315;28;20043;-75
2023/12/29 05:19:35;;;;;;;19.63;4.10;;;9.50;99.90;;;;;;4959445;28;20521;-77
2023/12/29 05:22:00;;;;;;;23.70;3.65;;;9.50;99.90;;;;;;4954092;28;20479;-76
2023/12/29 05:24:26;;;;;;;24.30;3.75;;;10.20;99.90;;;;;;4982228;28;20568;-75
2023/12/29 05:26:51;;;;;;;22.20;4.65;;;9.50;99.90;;;;;;4958554;28;20039;-80
2023/12/29 05:29:17;;;;;;;18.60;3.85;;;9.50;99.90;;;;;;4960942;28;20110;-75
2023/12/29 05:31:42;;;;;;;24.90;4.30;;;9.50;99.90;;;;;;4952223;28;20039;-75
2023/12/29 05:34:08;;;;;;;25.92;4.40;;;9.50;99.90;;;;;;4955597;28;20066;-75
2023/12/29 05:36:37;;;;;;;21.42;4.00;;;9.50;99.90;;;;;;4945710;28;20043;-78
2023/12/29 05:39:03;;;;;;;24.70;3.90;;;9.50;99.90;;;;;;4945216;28;20098;-76
2023/12/29 05:41:29;;;;;;;20.90;3.60;;;9.50;99.90;;;;;;4957531;28;20529;-75
2023/12/29 05:43:56;;;;;;;19.95;4.00;;;9.50;99.90;;;;;;4965965;28;20054;-75
2023/12/29 05:46:22;;;;;;;24.42;4.65;;;9.50;99.90;;;;;;4984367;28;20117;-76
2023/12/29 05:48:48;;;;;;;16.40;3.33;;;9.60;99.90;;;;;;4957358;28;20042;-74
2023/12/29 05:51:13;;;;;;;23.83;4.15;;;9.60;99.90;;;;;;4951624;28;20043;-75
2023/12/29 05:53:43;;;;;;;23.67;4.32;;;9.60;99.90;;;;;;4956285;28;20070;-74
2023/12/29 05:56:14;;;;;;;26.27;4.38;;;9.60;99.90;;;;;;4960502;28;20039;-75
2023/12/29 05:58:43;;;;;;;23.85;4.07;;;9.70;99.90;;;;;;4966418;28;20043;-75
2023/12/29 06:01:09;;;;;;;23.52;4.07;;;9.70;99.90;;;;;;4942840;28;20123;-77
2023/12/29 06:03:34;;;;;;;24.90;4.35;;;9.70;99.90;;;;;;4938912;28;20067;-77
2023/12/29 06:06:00;;;;;;;29.08;3.83;;;9.70;99.90;;;;;;4959530;28;20043;-75
2023/12/29 06:08:26;;;;;;;26.38;4.72;;;9.70;99.90;;;;;;4935807;28;20042;-75
2023/12/29 06:10:51;;;;;;;28.15;4.63;;;9.70;99.90;;;;;;4955424;28;20039;-75
2023/12/29 06:13:17;;;;;;;24.50;5.15;;;9.70;99.90;;;;;;4959723;28;20043;-74
2023/12/29 06:15:42;;;;;;;22.08;5.10;;;9.80;99.90;;;;;;4953002;28;20050;-78
2023/12/29 06:18:08;;;;;;;26.23;4.55;;;9.70;99.90;;;;;;4960300;28;20847;-75
2023/12/29 06:20:34;;;;;;;21.38;4.20;;;9.80;99.90;;;;;;4950853;28;20055;-76
2023/12/29 06:22:59;;;;;;;25.17;4.53;;;9.80;99.90;;;;;;4957517;28;20043;-77
2023/12/29 06:25:25;;;;;;;28.63;4.47;;;9.80;99.90;;;;;;4959692;28;20046;-76
2023/12/29 06:27:51;;;;;;;23.63;4.28;;;9.70;99.90;;;;;;4953190;28;20039;-76
2023/12/29 06:30:16;;;;;;;27.30;5.07;;;9.70;99.90;;;;;;4953223;28;20518;-75
2023/12/29 06:32:45;;;;;;;26.58;4.47;;;9.70;99.90;;;;;;4950705;28;20043;-75
2023/12/29 06:35:10;;;;;;;34.65;5.07;;;9.80;99.90;;;;;;4964965;28;20157;-75
2023/12/29 06:37:39;;;;;;;27.50;4.55;;;9.80;99.90;;;;;;4958578;28;20134;-75
2023/12/29 06:40:06;;;;;;;26.50;3.97;;;9.80;99.90;;;;;;4960594;28;20189;-75
2023/12/29 06:42:31;;;;;;;26.33;4.55;;;9.80;99.90;;;;;;4964295;28;20054;-78
2023/12/29 06:44:57;;;;;;;26.58;4.53;;;9.80;99.90;;;;;;4959099;28;20522;-75
2023/12/29 06:47:22;;;;;;;34.70;5.57;;;9.80;99.90;;;;;;4962089;28;20058;-75
2023/12/29 06:49:48;;;;;;;27.48;4.72;;;9.80;99.90;;;;;;4957086;28;20042;-77
2023/12/29 06:52:13;;;;;;;21.08;3.90;;;9.70;99.90;;;;;;4961820;28;20034;-77
2023/12/29 06:54:39;;;;;;;32.30;4.82;;;9.70;99.90;;;;;;4959098;28;20038;-75
2023/12/29 06:57:05;;;;;;;27.33;4.80;;;9.80;99.90;;;;;;4962360;28;20514;-76
2023/12/29 06:59:30;;;;;;;31.45;5.38;;;9.70;99.90;;;;;;4965349;28;20065;-75
2023/12/29 07:01:56;;;;;;;29.42;4.22;;;9.70;99.90;;;;;;4965513;28;20121;-77
2023/12/29 07:04:21;;;;;;;27.88;5.30;;;9.70;99.90;;;;;;4954268;28;20042;-75
2023/12/29 07:06:47;;;;;;;21.90;4.53;;;9.70;99.90;;;;;;4949361;28;20114;-75
2023/12/29 07:09:13;;;;;;;28.75;4.93;;;9.70;99.90;;;;;;4960725;28;20822;-75
2023/12/29 07:11:38;;;;;;;32.35;5.15;;;9.60;99.90;;;;;;4953734;28;20043;-78
2023/12/29 07:14:04;;;;;;;26.83;4.93;;;9.60;99.90;;;;;;4940218;28;20043;-76
2023/12/29 07:16:30;;;;;;;27.80;5.68;;;9.60;99.90;;;;;;4954746;28;20594;-77
2023/12/29 07:18:55;;;;;;;24.88;5.03;;;9.60;99.90;;;;;;4961127;28;20045;-75
2023/12/29 07:21:21;;;;;;;22.20;3.97;;;9.60;99.90;;;;;;4983311;28;20125;-77
2023/12/29 07:23:46;;;;;;;28.98;4.63;;;9.60;99.90;;;;;;4955229;28;20066;-74
2023/12/29 07:26:12;;;;;;;27.58;5.30;;;9.60;99.90;;;;;;4959433;28;20043;-75
2023/12/29 07:28:37;;;;;;;33.05;5.07;;;9.70;99.90;;;;;;4955097;28;20035;-75
2023/12/29 07:31:03;;;;;;;23.63;4.78;;;9.70;99.90;;;;;;4964375;28;20082;-77
2023/12/29 07:33:29;;;;;;;35.65;4.95;;;9.60;99.90;;;;;;4951211;28;20035;-75
2023/12/29 07:35:55;;;;;;;27.50;5.57;;;9.60;99.90;;;;;;4958757;28;20042;-79
2023/12/29 07:38:20;;;;;;;21.23;4.28;;;9.60;99.90;;;;;;4961717;28;20042;-76
2023/12/29 07:40:47;;;;;;;29.10;5.00;;;9.60;99.90;;;;;;4955425;28;20557;-76
2023/12/29 07:43:13;;;;;;;26.35;5.05;;;9.60;99.90;;;;;;4959665;28;20530;-78
2023/12/29 07:45:39;;;;;;;32.05;4.50;;;9.60;99.90;;;;;;4953613;28;20062;-77
2023/12/29 07:48:05;;;;;;;24.38;4.70;;;9.60;99.90;;;;;;4963840;28;20049;-75
2023/12/29 07:50:31;;;;;;;19.67;4.00;;;9.60;99.90;;;;;;4954092;28;20051;-75
2023/12/29 07:52:56;;;;;;;20.05;5.38;;;9.60;99.90;;;;;;4962514;28;20513;-75
2023/12/29 07:55:22;;;;;;;19.42;4.60;;;9.60;99.90;;;;;;4963897;28;20042;-75
2023/12/29 07:57:48;;;;;;;22.85;4.43;;;9.60;99.90;;;;;;4989884;28;20034;-75
2023/12/29 08:00:17;;;;;;;23.58;4.47;;;9.70;99.90;;;;;;4966316;28;20054;-76
2023/12/29 08:02:43;;;;;;;24.63;4.90;;;9.70;99.90;;;;;;4958989;28;20074;-75
2023/12/29 08:05:08;;;;;;;14.93;3.63;;;9.70;99.90;;;;;;4963116;28;20076;-75
2023/12/29 08:07:37;;;;;;;25.05;5.32;;;9.70;99.90;;;;;;4960087;28;20733;-77
2023/12/29 08:10:07;;;;;;;23.50;3.80;;;9.70;99.90;;;;;;4957314;28;20754;-75
2023/12/29 08:12:33;;;;;;;22.25;3.85;;;9.70;99.90;;;;;;4964061;28;20035;-76
2023/12/29 08:14:59;;;;;;;21.92;3.70;;;9.70;99.90;;;;;;4958762;28;20127;-75
2023/12/29 08:17:25;;;;;;;20.15;3.72;;;9.80;99.90;;;;;;4958296;28;20390;-75
2023/12/29 08:19:50;;;;;;;24.13;4.00;;;9.70;99.90;;;;;;4958859;28;20043;-75
2023/12/29 08:22:16;;;;;;;19.80;4.50;;;9.70;99.90;;;;;;4955251;28;20074;-79
2023/12/29 08:24:43;;;;;;;19.58;3.53;;;9.80;99.90;;;;;;4964877;28;20050;-75
2023/12/29 08:27:10;;;;;;;22.50;4.32;;;9.80;99.90;;;;;;4969263;28;20042;-75
2023/12/29 08:29:36;;;;;;;20.20;4.05;;;9.80;99.90;;;;;;4960013;28;20051;-78
2023/12/29 08:32:02;;;;;;;22.25;3.85;;;9.80;99.90;;;;;;4952293;28;20055;-75
2023/12/29 08:34:28;;;;;;;20.17;3.78;;;9.80;99.90;;;;;;4957526;28;20513;-75
2023/12/29 08:36:56;;;;;;;17.90;3.50;;;9.80;99.90;;;;;;4965773;28;20058;-75
2023/12/29 08:39:22;;;;;;;20.15;3.75;;;9.80;99.90;;;;;;4978660;28;20043;-75
2023/12/29 08:41:49;;;;;;;21.08;3.70;;;9.90;99.90;;;;;;4957052;28;20058;-75
2023/12/29 08:44:15;;;;;;;19.90;3.95;;;9.80;99.90;;;;;;4967125;28;20058;-75
2023/12/29 08:46:40;;;;;;;16.48;3.42;;;9.80;99.90;;;;;;4968631;28;20055;-75
2023/12/29 08:49:07;;;;;;;13.40;3.67;;;9.90;99.90;;;;;;4965483;28;20035;-78
2023/12/29 08:51:32;;;;;;;14.20;3.00;;;9.80;99.90;;;;;;4955604;28;20046;-75
2023/12/29 08:53:58;;;;;;;15.93;3.33;;;9.90;99.90;;;;;;4941482;28;20039;-75
2023/12/29 08:56:23;;;;;;;14.15;3.58;;;9.90;99.90;;;;;;4959953;28;20754;-75
2023/12/29 08:58:49;;;;;;;14.38;3.03;;;10.00;99.90;;;;;;4956469;28;20050;-78
2023/12/29 09:01:15;;;;;;;17.30;2.90;;;10.00;99.90;;;;;;4975074;28;20050;-75
2023/12/29 09:03:40;;;;;;;16.90;3.90;;;10.00;99.90;;;;;;4952537;28;20054;-77
2023/12/29 09:06:08;;;;;;;14.65;3.30;;;10.00;99.90;;;;;;4951250;28;20467;-76
2023/12/29 09:08:34;;;;;;;17.00;4.13;;;10.00;99.90;;;;;;4960727;28;20047;-78
2023/12/29 09:10:59;;;;;;;14.75;3.10;;;10.00;99.90;;;;;;4956121;28;20054;-79
2023/12/29 09:13:26;;;;;;;12.13;2.97;;;10.00;99.90;;;;;;4959817;28;20034;-76
2023/12/29 09:15:53;;;;;;;11.65;3.00;;;10.00;99.90;;;;;;4954647;28;20107;-76
2023/12/29 09:18:18;;;;;;;15.27;3.40;;;10.00;99.90;;;;;;4961901;28;20047;-75
2023/12/29 09:20:44;;;;;;;12.35;2.80;;;10.00;99.90;;;;;;4951776;28;20049;-77
2023/12/29 09:23:10;;;;;;;12.75;3.42;;;10.10;99.90;;;;;;4958513;28;20042;-74
2023/12/29 09:25:35;;;;;;;14.70;3.13;;;11.00;99.90;;;;;;4958525;28;20046;-75
2023/12/29 09:28:01;;;;;;;14.32;3.25;;;10.00;99.90;;;;;;4952482;28;20624;-75
2023/12/29 09:30:26;;;;;;;13.60;3.33;;;10.00;99.90;;;;;;4959285;28;20093;-75
2023/12/29 09:32:52;;;;;;;16.33;3.35;;;10.00;99.90;;;;;;4953569;28;20055;-79
2023/12/29 09:35:18;;;;;;;14.27;3.22;;;10.00;99.90;;;;;;4954409;28;20031;-76
2023/12/29 09:37:43;;;;;;;14.85;3.25;;;10.10;99.90;;;;;;4964714;28;20038;-77
2023/12/29 09:40:10;;;;;;;10.95;2.80;;;10.00;99.90;;;;;;4962926;28;20103;-76
2023/12/29 09:42:38;;;;;;;12.15;2.50;;;10.10;99.90;;;;;;4957815;28;20114;-75
2023/12/29 09:45:10;;;;;;;10.15;2.67;;;10.10;99.90;;;;;;4956581;28;20538;-79
2023/12/29 09:47:40;;;;;;;8.95;2.40;;;10.00;99.90;;;;;;4956029;28;20475;-76
2023/12/29 09:50:09;;;;;;;10.90;2.70;;;10.00;99.90;;;;;;4956092;28;20494;-76
2023/12/29 09:52:36;;;;;;;10.05;2.58;;;10.00;99.90;;;;;;4955645;28;20605;-75
2023/12/29 09:55:03;;;;;;;12.73;2.90;;;10.00;99.90;;;;;;4962049;28;20054;-75
2023/12/29 09:57:28;;;;;;;11.07;3.05;;;9.90;99.90;;;;;;4951727;28;20055;-75
2023/12/29 09:59:55;;;;;;;9.77;2.60;;;10.00;99.90;;;;;;4959744;28;20046;-74
2023/12/29 10:02:23;;;;;;;11.07;2.70;;;9.90;99.90;;;;;;4953013;28;20039;-74
2023/12/29 10:04:49;;;;;;;9.57;2.25;;;9.90;99.90;;;;;;4953616;28;20243;-78
2023/12/29 10:07:28;;;;;;;8.68;2.05;;;9.80;99.90;;;;;;4959103;28;20101;-78
2023/12/29 10:09:58;;;;;;;7.78;1.75;;;9.80;99.90;;;;;;4957388;28;20130;-74
2023/12/29 10:12:24;;;;;;;8.15;1.90;;;9.60;99.90;;;;;;4956324;28;20039;-77
2023/12/29 10:15:12;;;;;;;8.90;2.03;;;9.50;99.90;;;;;;4965159;28;20042;-74
2023/12/29 10:18:02;;;;;;;6.95;1.50;;;9.40;99.90;;;;;;4951480;28;20043;-74
2023/12/29 10:20:40;;;;;;;3.67;1.10;;;9.30;99.90;;;;;;4959855;28;20078;-77
2023/12/29 10:23:08;;;;;;;3.70;1.00;;;9.20;99.90;;;;;;4981937;28;20054;-76
2023/12/29 10:25:34;;;;;;;7.55;1.63;;;9.00;99.90;;;;;;4974982;28;20126;-77
2023/12/29 10:28:00;;;;;;;6.93;1.20;;;8.90;99.90;;;;;;4966249;28;20090;-74
2023/12/29 10:30:26;;;;;;;6.97;1.13;;;8.80;99.90;;;;;;4958363;28;20365;-75
2023/12/29 10:32:52;;;;;;;4.32;1.20;;;8.70;99.90;;;;;;4957399;28;20175;-77
2023/12/29 10:35:19;;;;;;;5.55;1.35;;;8.70;99.90;;;;;;4960256;28;20039;-76
2023/12/29 10:37:45;;;;;;;6.32;1.17;;;8.60;99.90;;;;;;4959751;28;20043;-75
2023/12/29 10:40:17;;;;;;;3.95;1.00;;;8.70;99.90;;;;;;4953538;28;20043;-75
2023/12/29 10:43:09;;;;;;;;;;;8.70;99.90;;;;;;4953740;28;20050;-75
2023/12/29 10:45:36;;;;;;;6.53;1.35;;;8.70;99.90;;;;;;4955231;28;20285;-75
2023/12/29 10:48:02;;;;;;;6.55;1.48;;;8.70;99.90;;;;;;4958315;28;20039;-76
2023/12/29 10:50:28;;;;;;;7.07;1.90;;;8.80;99.90;;;;;;4952144;28;20043;-78
2023/12/29 10:53:14;;;;;;;10.52;2.35;;;8.90;99.90;;;;;;4958883;28;20470;-74
2023/12/29 10:55:40;;;;;;;10.10;1.60;;;9.00;99.90;;;;;;4972710;28;20055;-76
2023/12/29 10:58:05;;;;;;;9.23;2.00;;;9.00;99.90;;;;;;4954123;28;20058;-75
2023/12/29 11:00:32;;;;;;;12.02;2.33;;;9.20;99.90;;;;;;4959524;28;20043;-75
2023/12/29 11:02:58;;;;;;;10.98;2.20;;;9.20;99.90;;;;;;4954946;28;20070;-77
2023/12/29 11:05:28;;;;;;;15.85;2.72;;;9.30;99.90;;;;;;4954951;28;20118;-75
2023/12/29 11:07:54;;;;;;;13.90;2.97;;;9.30;99.90;;;;;;4954398;28;20056;-75
2023/12/29 11:10:21;;;;;;;11.73;2.15;;;9.40;99.90;;;;;;4953379;28;20518;-75
2023/12/29 11:12:48;;;;;;;17.65;2.65;;;9.40;99.90;;;;;;4957087;28;20034;-74
2023/12/29 11:15:14;;;;;;;13.73;2.30;;;9.50;99.90;;;;;;4953582;28;20075;-76
2023/12/29 11:17:52;;;;;;;11.27;2.65;;;9.50;99.90;;;;;;4941552;28;20494;-75
2023/12/29 11:20:18;;;;;;;20.42;3.00;;;9.50;99.90;;;;;;4951933;28;20047;-78
2023/12/29 11:22:46;;;;;;;16.45;2.75;;;9.50;99.90;;;;;;4969674;28;20083;-75
2023/12/29 11:25:12;;;;;;;9.23;2.30;;;9.50;99.90;;;;;;4960346;28;20117;-75
2023/12/29 11:27:38;;;;;;;12.57;2.63;;;9.50;99.90;;;;;;4954699;28;20039;-77
2023/12/29 11:30:05;;;;;;;12.85;3.28;;;9.60;99.90;;;;;;4972842;28;20042;-78
2023/12/29 11:32:45;;;;;;;13.30;3.15;;;9.60;99.90;;;;;;4952533;28;20564;-75
2023/12/29 11:35:46;;;;;;;17.65;3.85;;;9.70;99.90;;;;;;4974131;28;20057;-79
2023/12/29 11:38:34;;;;;;;15.93;4.25;;;9.70;99.90;;;;;;4954483;28;20593;-76
2023/12/29 11:41:38;;;;;;;15.82;2.83;;;9.80;99.90;;;;;;4959964;28;20054;-77
2023/12/29 11:44:04;;;;;;;19.35;2.97;;;9.80;99.90;;;;;;4957584;28;20039;-79
2023/12/29 11:46:44;;;;;;;13.43;2.58;;;9.90;99.90;;;;;;4960331;28;20577;-75
2023/12/29 11:49:10;;;;;;;16.33;2.95;;;9.90;99.90;;;;;;4959320;28;20047;-76
2023/12/29 11:51:40;;;;;;;15.45;2.75;;;10.00;99.90;;;;;;4962516;28;20079;-75
2023/12/29 11:54:07;;;;;;;15.05;2.60;;;10.00;99.90;;;;;;4964290;28;20039;-75
2023/12/29 11:56:40;;;;;;;16.88;3.38;;;10.00;99.90;;;;;;4959004;28;20043;-77
2023/12/29 11:59:16;;;;;;;20.85;2.75;;;10.00;99.90;;;;;;4960608;28;20054;-75
2023/12/29 12:01:42;;;;;;;15.90;2.90;;;10.00;99.90;;;;;;4957928;28;20383;-75
2023/12/29 12:04:40;;;;;;;18.08;3.35;;;10.10;99.90;;;;;;4955538;28;20130;-75
2023/12/29 12:07:27;;;;;;;24.60;3.30;;;10.10;99.90;;;;;;4961100;28;20043;-75
2023/12/29 12:10:34;;;;;;;13.05;2.20;;;10.10;99.90;;;;;;4939700;28;20091;-78
2023/12/29 12:13:00;;;;;;;14.25;2.80;;;10.20;99.90;;;;;;4949845;28;20647;-74
2023/12/29 12:15:29;;;;;;;13.23;2.72;;;10.20;99.90;;;;;;4952330;28;20170;-74
2023/12/29 12:18:09;;;;;;;17.15;2.40;;;10.10;99.90;;;;;;4968578;28;20053;-77
2023/12/29 12:20:35;;;;;;;16.58;3.13;;;10.10;99.90;;;;;;4949704;28;20074;-75
2023/12/29 12:23:05;;;;;;;16.70;2.63;;;10.10;99.90;;;;;;4952492;28;20050;-77
2023/12/29 12:25:34;;;;;;;13.07;2.33;;;10.10;99.90;;;;;;4972991;28;20054;-76
2023/12/29 12:28:04;;;;;;;18.70;3.20;;;10.10;99.90;;;;;;4952721;28;20616;-75
2023/12/29 12:30:30;;;;;;;15.65;2.63;;;10.10;99.90;;;;;;4956737;28;20074;-74
2023/12/29 12:33:03;;;;;;;18.42;2.85;;;10.10;99.90;;;;;;4954531;28;20125;-74
2023/12/29 12:35:29;;;;;;;19.38;3.40;;;10.20;99.90;;;;;;4958188;28;20178;-77
2023/12/29 12:38:30;;;;;;;20.13;2.75;;;10.20;99.90;;;;;;4971549;28;20121;-74
2023/12/29 12:40:56;;;;;;;14.63;2.75;;;10.30;99.90;;;;;;4923532;28;20090;-77
2023/12/29 12:43:26;;;;;;;9.65;1.90;;;10.30;99.90;;;;;;4977719;28;20517;-77
2023/12/29 12:46:00;;;;;;;14.77;3.38;;;10.30;99.90;;;;;;4954416;28;20051;-76